Dwarf, Kentucky
Current Conditions -  °F | °C
As of 5:53 AM on Sunday 26 Oct 2014 (Local Time) from KJKL Reporting Station
Clear Clear  
Wind Chill: 57°   Ceiling: Unl
Heat Index: 57°   Visibility: 10mi
Dew Point: 48°   Wind: 5mph
Humidity: 72%   Direction: 310°NW
Pressure: 29.99"   Gusts: NA
Location:  37.33°N, 83.13°W
Report Text: KJKL 260953Z AUTO 31004KT 10SM CLR 14/09 A2999 RMK AO2 SLP146 T01390089
Loading
Personal Weather Stations






























Interactive Weather Map
Tropical Storm Tracking
New forecast layout! Learn more

10-Day Weather Forecast

Advertisements
Track Severe Weather on mobile